createdAt,value
2023-03-21T00:01:54.190Z,7.12
2023-03-21T00:04:24.613Z,7.11
2023-03-21T00:06:53.841Z,7.10
2023-03-21T00:09:22.456Z,7.10
2023-03-21T00:11:50.615Z,7.11
2023-03-21T00:14:19.153Z,7.12
2023-03-21T00:16:52.475Z,7.13
2023-03-21T00:19:22.021Z,7.15
2023-03-21T00:22:06.335Z,7.15
2023-03-21T00:24:36.895Z,7.17
2023-03-21T00:27:30.229Z,7.18
2023-03-21T00:29:56.976Z,7.18
2023-03-21T00:32:25.559Z,7.16
2023-03-21T00:35:03.923Z,7.12
2023-03-21T00:37:43.002Z,7.08
2023-03-21T00:40:25.442Z,7.04
2023-03-21T00:42:55.946Z,6.99
2023-03-21T00:45:24.221Z,6.95
2023-03-21T00:47:52.604Z,6.92
2023-03-21T00:50:21.290Z,6.88
2023-03-21T00:52:49.665Z,6.83
2023-03-21T00:55:19.995Z,6.78
2023-03-21T00:57:56.262Z,6.73
2023-03-21T01:00:28.397Z,6.69
2023-03-21T01:03:08.502Z,6.66
2023-03-21T01:06:06.142Z,6.65
2023-03-21T01:08:53.595Z,6.65
2023-03-21T01:11:25.129Z,6.64
2023-03-21T01:14:04.216Z,6.61
2023-03-21T01:16:39.692Z,6.60
2023-03-21T01:19:22.237Z,6.58
2023-03-21T01:21:53.155Z,6.55
2023-03-21T01:24:21.423Z,6.51
2023-03-21T01:26:49.896Z,6.46
2023-03-21T01:29:18.081Z,6.41
2023-03-21T01:31:46.602Z,6.39
2023-03-21T01:34:14.836Z,6.34
2023-03-21T01:36:43.467Z,6.29
2023-03-21T01:39:16.313Z,6.22
2023-03-21T01:41:45.003Z,6.14
2023-03-21T01:44:22.169Z,6.08
2023-03-21T01:47:11.650Z,6.05
2023-03-21T01:50:06.441Z,6.02
2023-03-21T01:52:43.631Z,6.00
2023-03-21T01:55:16.014Z,5.98
2023-03-21T01:58:07.739Z,5.96
2023-03-21T02:01:01.238Z,5.95
2023-03-21T02:03:51.013Z,5.93
2023-03-21T02:06:46.938Z,5.92
2023-03-21T02:09:28.396Z,5.90
2023-03-21T02:11:57.176Z,5.87
2023-03-21T02:14:30.500Z,5.83
2023-03-21T02:17:19.431Z,5.80
2023-03-21T02:20:09.315Z,5.75
2023-03-21T02:23:15.685Z,5.68
2023-03-21T02:25:53.116Z,5.60
2023-03-21T02:28:37.123Z,5.52
2023-03-21T02:31:08.694Z,5.45
2023-03-21T02:33:49.240Z,5.39
2023-03-21T02:36:46.108Z,5.35
2023-03-21T02:39:19.177Z,5.32
2023-03-21T02:42:11.105Z,5.29
2023-03-21T02:45:02.633Z,5.25
2023-03-21T02:47:42.030Z,5.24
2023-03-21T02:50:24.475Z,5.25
2023-03-21T02:52:54.396Z,5.26
2023-03-21T02:55:25.901Z,5.25
2023-03-21T02:58:12.739Z,5.23
2023-03-21T03:00:46.218Z,5.20
2023-03-21T03:03:27.970Z,5.20
2023-03-21T03:06:03.224Z,5.21
2023-03-21T03:08:47.325Z,5.19
2023-03-21T03:11:44.932Z,5.19
2023-03-21T03:14:52.965Z,5.16
2023-03-21T03:17:43.919Z,5.10
2023-03-21T03:20:30.525Z,5.05
2023-03-21T03:23:34.546Z,5.03
2023-03-21T03:26:18.078Z,5.01
2023-03-21T03:28:51.520Z,4.99
2023-03-21T03:31:29.918Z,4.99
2023-03-21T03:34:09.186Z,5.01
2023-03-21T03:36:43.864Z,5.04
2023-03-21T03:39:17.106Z,5.07
2023-03-21T03:42:15.542Z,5.10
2023-03-21T03:44:54.734Z,5.14
2023-03-21T03:47:57.060Z,5.19
2023-03-21T03:50:40.000Z,5.24
2023-03-21T03:53:27.380Z,5.29
2023-03-21T03:55:57.560Z,5.35
2023-03-21T03:58:36.368Z,5.36
2023-03-21T04:01:14.275Z,5.41
2023-03-21T04:03:51.071Z,5.46
2023-03-21T04:06:24.508Z,5.50
2023-03-21T04:08:57.286Z,5.52
2023-03-21T04:11:25.764Z,5.53
2023-03-21T04:13:54.864Z,5.53
2023-03-21T04:16:25.736Z,5.54
2023-03-21T04:18:54.384Z,5.52
2023-03-21T04:21:22.662Z,5.49
2023-03-21T04:23:51.144Z,5.46
2023-03-21T04:26:22.523Z,5.45
2023-03-21T04:29:05.516Z,5.43
2023-03-21T04:31:53.505Z,5.41
2023-03-21T04:34:24.202Z,5.42
2023-03-21T04:36:54.314Z,5.45
2023-03-21T04:39:24.799Z,5.47
2023-03-21T04:41:53.384Z,5.51
2023-03-21T04:44:23.230Z,5.55
2023-03-21T04:46:51.821Z,5.60
2023-03-21T04:49:21.936Z,5.67
2023-03-21T04:51:50.351Z,5.76
2023-03-21T04:54:21.192Z,5.82
2023-03-21T04:56:49.647Z,5.84
2023-03-21T04:59:19.137Z,5.84
2023-03-21T05:01:47.619Z,5.84
2023-03-21T05:04:15.850Z,5.86
2023-03-21T05:06:46.557Z,5.90
2023-03-21T05:09:17.776Z,5.94
2023-03-21T05:11:46.459Z,5.96
2023-03-21T05:14:19.228Z,5.97
2023-03-21T05:16:54.434Z,5.99
2023-03-21T05:19:35.531Z,6.04
2023-03-21T05:22:08.144Z,6.09
2023-03-21T05:24:39.482Z,6.14
2023-03-21T05:27:10.117Z,6.21
2023-03-21T05:29:42.589Z,6.28
2023-03-21T05:32:11.485Z,6.34
2023-03-21T05:34:40.576Z,6.39
2023-03-21T05:37:09.057Z,6.45
2023-03-21T05:39:49.012Z,6.58
2023-03-21T05:42:30.087Z,6.69
2023-03-21T05:44:58.990Z,6.76
2023-03-21T05:47:30.839Z,6.84
2023-03-21T05:50:00.759Z,6.92
2023-03-21T05:52:29.951Z,6.98
2023-03-21T05:54:59.266Z,7.01
2023-03-21T05:57:29.190Z,7.04
2023-03-21T06:00:04.882Z,7.07
2023-03-21T06:02:44.797Z,7.12
2023-03-21T06:05:29.738Z,7.21
2023-03-21T06:07:59.266Z,7.28
2023-03-21T06:10:28.748Z,7.35
2023-03-21T06:12:57.333Z,7.45
2023-03-21T06:15:31.958Z,7.54
2023-03-21T06:18:09.042Z,7.61
2023-03-21T06:20:38.549Z,7.69
2023-03-21T06:23:10.829Z,7.79
2023-03-21T06:25:39.433Z,7.88
2023-03-21T06:28:08.302Z,8.00
2023-03-21T06:30:40.680Z,8.14
2023-03-21T06:33:16.724Z,8.27
2023-03-21T06:35:51.457Z,8.51
2023-03-21T06:38:20.345Z,8.82
2023-03-21T06:40:49.448Z,9.26
2023-03-21T06:43:18.620Z,9.77
2023-03-21T06:45:47.119Z,10.33
2023-03-21T06:48:15.664Z,10.81
2023-03-21T06:50:52.276Z,11.32
2023-03-21T06:53:30.181Z,11.70
2023-03-21T06:56:20.059Z,11.88
2023-03-21T06:58:50.001Z,12.09
2023-03-21T07:01:44.259Z,12.66
2023-03-21T07:04:13.080Z,13.08
2023-03-21T07:06:41.430Z,13.08
2023-03-21T07:09:10.628Z,13.04
2023-03-21T07:11:39.213Z,12.91
2023-03-21T07:14:08.845Z,12.75
2023-03-21T07:16:37.129Z,12.78
2023-03-21T07:19:05.376Z,12.93
2023-03-21T07:21:33.860Z,13.00
2023-03-21T07:24:02.337Z,13.06
2023-03-21T07:26:30.852Z,13.16
2023-03-21T07:29:00.428Z,13.27
2023-03-21T07:31:29.847Z,13.44
2023-03-21T07:33:58.413Z,13.65
2023-03-21T07:36:26.897Z,14.03
2023-03-21T07:38:55.479Z,14.37
2023-03-21T07:41:25.416Z,14.74
2023-03-21T07:43:54.081Z,15.10
2023-03-21T07:46:22.259Z,15.34
2023-03-21T07:48:51.146Z,15.49
2023-03-21T07:51:19.525Z,15.74
2023-03-21T07:53:48.880Z,16.04
2023-03-21T07:56:17.406Z,16.40
2023-03-21T07:58:45.687Z,16.68
2023-03-21T08:01:13.972Z,16.75
2023-03-21T08:03:43.774Z,16.78
2023-03-21T08:06:12.059Z,16.87
2023-03-21T08:08:40.530Z,16.90
2023-03-21T08:11:08.913Z,17.00
2023-03-21T08:13:38.517Z,17.24
2023-03-21T08:16:07.998Z,17.52
2023-03-21T08:18:36.922Z,17.45
2023-03-21T08:21:06.591Z,17.53
2023-03-21T08:23:36.742Z,17.52
2023-03-21T08:26:05.637Z,17.65
2023-03-21T08:28:34.121Z,17.80
2023-03-21T08:31:08.479Z,17.90
2023-03-21T08:33:37.535Z,18.06
2023-03-21T08:36:07.017Z,18.18
2023-03-21T08:38:36.137Z,18.14
2023-03-21T08:41:04.485Z,18.16
2023-03-21T08:43:32.892Z,18.41
2023-03-21T08:46:04.300Z,18.79
2023-03-21T08:48:33.033Z,18.88
2023-03-21T08:51:02.133Z,18.74
2023-03-21T08:53:30.612Z,18.54
2023-03-21T08:55:59.399Z,18.43
2023-03-21T08:58:27.884Z,18.36
2023-03-21T09:00:56.538Z,18.31
2023-03-21T09:03:24.944Z,18.31
2023-03-21T09:05:54.553Z,18.28
2023-03-21T09:08:23.592Z,18.34
2023-03-21T09:10:55.312Z,18.43
2023-03-21T09:13:24.536Z,18.59
2023-03-21T09:15:54.262Z,18.44
2023-03-21T09:18:38.872Z,18.34
2023-03-21T09:21:13.045Z,18.31
2023-03-21T09:23:42.090Z,18.17
2023-03-21T09:26:10.985Z,18.13
2023-03-21T09:28:40.723Z,18.05
2023-03-21T09:31:11.950Z,17.90
2023-03-21T09:33:40.925Z,17.77
2023-03-21T09:36:19.168Z,17.72
2023-03-21T09:38:49.408Z,17.80
2023-03-21T09:41:32.788Z,17.90
2023-03-21T09:44:09.874Z,17.95
2023-03-21T09:46:39.039Z,18.04
2023-03-21T09:49:18.201Z,18.21
2023-03-21T09:51:51.209Z,18.38
2023-03-21T09:54:43.173Z,18.70
2023-03-21T09:57:38.332Z,19.12
2023-03-21T10:00:19.610Z,19.46
2023-03-21T10:02:57.317Z,19.63
2023-03-21T10:05:30.353Z,19.71
2023-03-21T10:08:24.955Z,19.74
2023-03-21T10:11:02.701Z,19.69
2023-03-21T10:13:39.566Z,19.57
2023-03-21T10:16:29.825Z,19.58
2023-03-21T10:19:03.156Z,19.65
2023-03-21T10:21:58.578Z,19.67
2023-03-21T10:24:23.707Z,19.74
2023-03-21T10:26:54.312Z,19.88
2023-03-21T10:29:30.451Z,20.04
2023-03-21T10:31:59.650Z,20.16
2023-03-21T10:34:33.394Z,20.26
2023-03-21T10:37:03.895Z,20.19
2023-03-21T10:39:37.928Z,20.17
2023-03-21T10:42:06.937Z,20.32
2023-03-21T10:44:36.311Z,20.45
2023-03-21T10:47:09.659Z,20.54
2023-03-21T10:50:06.224Z,20.69
2023-03-21T10:52:30.479Z,20.80
2023-03-21T10:55:16.870Z,20.74
2023-03-21T10:57:47.335Z,20.63
2023-03-21T11:00:26.190Z,20.63
2023-03-21T11:02:55.374Z,20.67
2023-03-21T11:05:23.645Z,20.70
2023-03-21T11:08:07.068Z,20.82
2023-03-21T11:10:38.488Z,21.06
2023-03-21T11:13:18.998Z,21.19
2023-03-21T11:15:58.268Z,21.23
2023-03-21T11:18:31.544Z,21.13
2023-03-21T11:21:06.235Z,20.91
2023-03-21T11:23:40.060Z,20.72
2023-03-21T11:26:20.802Z,20.53
2023-03-21T11:28:49.105Z,20.44
2023-03-21T11:31:18.071Z,20.28
2023-03-21T11:33:56.313Z,20.10
2023-03-21T11:36:32.316Z,19.88
2023-03-21T11:39:15.907Z,19.69
2023-03-21T11:41:48.378Z,19.46
2023-03-21T11:44:35.857Z,19.30
2023-03-21T11:47:04.082Z,19.21
2023-03-21T11:49:33.217Z,19.16
2023-03-21T11:52:16.329Z,19.08
2023-03-21T11:54:56.866Z,18.99
2023-03-21T11:57:50.085Z,18.88
2023-03-21T12:00:26.263Z,18.79
2023-03-21T12:03:16.302Z,18.79
2023-03-21T12:06:01.142Z,18.79
2023-03-21T12:09:01.583Z,18.75
2023-03-21T12:11:41.526Z,18.73
2023-03-21T12:14:23.111Z,18.62
2023-03-21T12:17:16.480Z,18.56
2023-03-21T12:20:10.305Z,18.52
2023-03-21T12:22:58.166Z,18.45
2023-03-21T12:25:59.437Z,18.37
2023-03-21T12:28:59.076Z,18.35
2023-03-21T12:31:42.614Z,18.28
2023-03-21T12:34:29.296Z,18.34
2023-03-21T12:37:03.519Z,18.33
2023-03-21T12:39:35.552Z,18.33
2023-03-21T12:42:25.744Z,18.29
2023-03-21T12:45:11.642Z,18.28
2023-03-21T12:47:48.897Z,18.33
2023-03-21T12:50:28.170Z,18.35
2023-03-21T12:53:03.624Z,18.35
2023-03-21T12:55:34.972Z,18.35
2023-03-21T12:58:10.536Z,18.30
2023-03-21T13:00:53.696Z,18.25
2023-03-21T13:03:39.103Z,18.31
2023-03-21T13:06:11.742Z,18.39
2023-03-21T13:08:46.370Z,18.37
2023-03-21T13:11:19.922Z,18.35
2023-03-21T13:14:14.310Z,18.37
2023-03-21T13:16:53.097Z,18.49
2023-03-21T13:19:40.769Z,18.61
2023-03-21T13:22:22.566Z,18.70
2023-03-21T13:25:00.202Z,18.72
2023-03-21T13:27:32.069Z,18.70
2023-03-21T13:30:18.291Z,18.62
2023-03-21T13:32:49.682Z,18.52
2023-03-21T13:35:33.261Z,18.39
2023-03-21T13:38:20.624Z,18.20
2023-03-21T13:40:52.080Z,18.10
2023-03-21T13:44:05.484Z,18.05
2023-03-21T13:46:53.364Z,17.96
2023-03-21T13:49:36.995Z,17.85
2023-03-21T13:52:12.207Z,17.76
2023-03-21T13:54:54.117Z,17.74
2023-03-21T13:57:30.644Z,17.70
2023-03-21T14:00:39.937Z,17.61
2023-03-21T14:03:09.231Z,17.53
2023-03-21T14:05:39.409Z,17.45
2023-03-21T14:08:15.737Z,17.39
2023-03-21T14:10:52.806Z,17.31
2023-03-21T14:13:25.580Z,17.25
2023-03-21T14:16:00.303Z,17.17
2023-03-21T14:18:52.407Z,17.11
2023-03-21T14:21:24.328Z,17.05
2023-03-21T14:24:01.867Z,16.98
2023-03-21T14:26:34.513Z,16.93
2023-03-21T14:29:22.738Z,16.86
2023-03-21T14:31:56.534Z,16.78
2023-03-21T14:34:27.782Z,16.69
2023-03-21T14:36:58.537Z,16.59
2023-03-21T14:39:30.973Z,16.51
2023-03-21T14:42:13.910Z,16.46
2023-03-21T14:44:54.962Z,16.42
2023-03-21T14:47:28.276Z,16.34
2023-03-21T14:49:58.195Z,16.28
2023-03-21T14:52:32.308Z,16.21
2023-03-21T14:55:03.079Z,16.13
2023-03-21T14:57:33.402Z,16.05
2023-03-21T15:00:12.598Z,15.98
2023-03-21T15:02:43.344Z,15.90
2023-03-21T15:05:29.550Z,15.86
2023-03-21T15:08:07.332Z,15.86
2023-03-21T15:10:35.816Z,15.83
2023-03-21T15:13:14.240Z,15.78
2023-03-21T15:15:43.735Z,15.72
2023-03-21T15:18:18.241Z,15.67
2023-03-21T15:20:49.041Z,15.63
2023-03-21T15:23:44.916Z,15.58
2023-03-21T15:26:21.332Z,15.55
2023-03-21T15:28:55.702Z,15.51
2023-03-21T15:31:29.829Z,15.46
2023-03-21T15:33:58.409Z,15.40
2023-03-21T15:36:37.913Z,15.35
2023-03-21T15:39:10.023Z,15.30
2023-03-21T15:41:38.822Z,15.25
2023-03-21T15:44:10.357Z,15.20
2023-03-21T15:46:42.319Z,15.14
2023-03-21T15:49:25.538Z,15.08
2023-03-21T15:52:14.164Z,15.01
2023-03-21T15:54:44.430Z,14.94
2023-03-21T15:57:23.984Z,14.88
2023-03-21T16:00:20.104Z,14.83
2023-03-21T16:02:55.077Z,14.77
2023-03-21T16:05:32.561Z,14.71
2023-03-21T16:08:06.972Z,14.64
2023-03-21T16:10:38.366Z,14.58
2023-03-21T16:13:07.496Z,14.52
2023-03-21T16:15:36.016Z,14.46
2023-03-21T16:18:06.410Z,14.41
2023-03-21T16:20:43.623Z,14.36
2023-03-21T16:23:13.281Z,14.31
2023-03-21T16:25:43.936Z,14.26
2023-03-21T16:28:17.283Z,14.20
2023-03-21T16:30:45.781Z,14.16
2023-03-21T16:33:14.606Z,14.12
2023-03-21T16:35:42.785Z,14.07
2023-03-21T16:38:13.437Z,14.02
2023-03-21T16:40:43.850Z,13.97
2023-03-21T16:43:12.603Z,13.92
2023-03-21T16:45:41.348Z,13.88
2023-03-21T16:48:16.633Z,13.83
2023-03-21T16:50:48.591Z,13.79
2023-03-21T16:53:17.285Z,13.76
2023-03-21T16:55:46.087Z,13.72
2023-03-21T16:58:16.508Z,13.69
2023-03-21T17:00:44.672Z,13.67
2023-03-21T17:03:18.241Z,13.65
2023-03-21T17:05:46.860Z,13.62
2023-03-21T17:08:17.298Z,13.59
2023-03-21T17:10:46.495Z,13.57
2023-03-21T17:13:14.770Z,13.55
2023-03-21T17:15:44.274Z,13.53
2023-03-21T17:18:12.546Z,13.50
2023-03-21T17:20:41.965Z,13.48
2023-03-21T17:23:11.233Z,13.46
2023-03-21T17:25:40.069Z,13.44
2023-03-21T17:28:08.943Z,13.43
2023-03-21T17:30:40.209Z,13.40
2023-03-21T17:33:08.968Z,13.38
2023-03-21T17:35:37.574Z,13.37
2023-03-21T17:38:12.331Z,13.35
2023-03-21T17:40:41.066Z,13.32
2023-03-21T17:43:17.068Z,13.32
2023-03-21T17:45:45.497Z,13.31
2023-03-21T17:48:13.837Z,13.30
2023-03-21T17:50:42.360Z,13.29
2023-03-21T17:53:10.535Z,13.29
2023-03-21T17:55:39.938Z,13.28
2023-03-21T17:58:08.316Z,13.28
2023-03-21T18:00:37.188Z,13.26
2023-03-21T18:03:05.705Z,13.26
2023-03-21T18:05:34.281Z,13.26
2023-03-21T18:08:10.207Z,13.25
2023-03-21T18:10:41.074Z,13.24
2023-03-21T18:13:10.481Z,13.23
2023-03-21T18:15:44.816Z,13.20
2023-03-21T18:18:14.712Z,13.16
2023-03-21T18:20:53.494Z,13.14
2023-03-21T18:23:22.729Z,13.11
2023-03-21T18:25:52.886Z,13.09
2023-03-21T18:28:22.446Z,13.06
2023-03-21T18:31:12.603Z,13.05
2023-03-21T18:33:41.742Z,13.05
2023-03-21T18:36:13.788Z,13.03
2023-03-21T18:38:42.909Z,13.02
2023-03-21T18:41:11.749Z,13.00
2023-03-21T18:44:00.914Z,12.97
2023-03-21T18:46:30.740Z,12.93
2023-03-21T18:48:59.059Z,12.89
2023-03-21T18:51:27.335Z,12.83
2023-03-21T18:53:55.922Z,12.77
2023-03-21T18:57:20.082Z,12.71
2023-03-21T18:59:12.744Z,12.64
2023-03-21T19:01:41.250Z,12.60
2023-03-21T19:04:21.374Z,12.55
2023-03-21T19:06:53.249Z,12.50
2023-03-21T19:09:29.420Z,12.46
2023-03-21T19:12:01.571Z,12.42
2023-03-21T19:14:30.777Z,12.38
2023-03-21T19:17:50.836Z,12.35
2023-03-21T19:19:48.408Z,12.31
2023-03-21T19:22:19.657Z,12.29
2023-03-21T19:24:48.012Z,12.27
2023-03-21T19:27:18.874Z,12.24
2023-03-21T19:29:59.793Z,12.23
2023-03-21T19:32:35.189Z,12.21
2023-03-21T19:35:05.127Z,12.19
2023-03-21T19:37:35.206Z,12.18
2023-03-21T19:40:06.262Z,12.15
2023-03-21T19:42:36.415Z,12.15
2023-03-21T19:45:05.892Z,12.14
2023-03-21T19:47:34.175Z,12.13
2023-03-21T19:52:52.433Z,12.11
2023-03-21T19:55:21.016Z,12.10
2023-03-21T19:57:49.616Z,12.08
2023-03-21T20:00:18.955Z,12.07
2023-03-21T20:02:47.438Z,12.08
2023-03-21T20:05:18.033Z,12.10
2023-03-21T20:07:47.009Z,12.11
2023-03-21T20:10:15.397Z,12.11
2023-03-21T20:12:43.715Z,12.11
2023-03-21T20:15:18.366Z,12.12
2023-03-21T20:17:50.011Z,12.12
2023-03-21T20:20:19.341Z,12.11
2023-03-21T20:23:07.881Z,12.08
2023-03-21T20:25:43.981Z,12.05
2023-03-21T20:28:17.114Z,12.02
2023-03-21T20:30:54.197Z,11.98
2023-03-21T20:33:22.609Z,11.95
2023-03-21T20:36:32.804Z,11.93
2023-03-21T20:38:48.862Z,11.88
2023-03-21T20:41:17.696Z,11.85
2023-03-21T20:46:36.449Z,11.78
2023-03-21T20:49:08.864Z,11.74
2023-03-21T20:54:26.467Z,11.66
2023-03-21T20:56:55.445Z,11.62
2023-03-21T20:59:27.567Z,11.61
2023-03-21T21:01:57.674Z,11.59
2023-03-21T21:04:48.136Z,11.59
2023-03-21T21:07:21.188Z,11.59
2023-03-21T21:09:50.324Z,11.60
2023-03-21T21:12:23.399Z,11.62
2023-03-21T21:14:52.289Z,11.64
2023-03-21T21:17:40.316Z,11.66
2023-03-21T21:20:18.278Z,11.67
2023-03-21T21:22:58.880Z,11.69
2023-03-21T21:25:32.202Z,11.68
2023-03-21T21:28:02.038Z,11.65
2023-03-21T21:30:32.789Z,11.61
2023-03-21T21:33:01.084Z,11.59
2023-03-21T21:35:29.634Z,11.56
2023-03-21T21:37:57.832Z,11.54
2023-03-21T21:40:26.175Z,11.53
2023-03-21T21:42:54.539Z,11.48
2023-03-21T21:45:22.861Z,11.44
2023-03-21T21:47:51.544Z,11.42
2023-03-21T21:50:22.170Z,11.38
2023-03-21T21:52:53.011Z,11.32
2023-03-21T21:55:22.272Z,11.28
2023-03-21T21:57:50.972Z,11.26
2023-03-21T22:00:20.280Z,11.25
2023-03-21T22:02:48.469Z,11.25
2023-03-21T22:05:19.360Z,11.26
2023-03-21T22:07:49.695Z,11.26
2023-03-21T22:10:19.812Z,11.28
2023-03-21T22:12:48.598Z,11.29
2023-03-21T22:15:18.351Z,11.30
2023-03-21T22:17:46.796Z,11.29
2023-03-21T22:20:16.952Z,11.29
2023-03-21T22:22:46.153Z,11.29
2023-03-21T22:25:16.765Z,11.29
2023-03-21T22:27:45.225Z,11.28
2023-03-21T22:30:17.354Z,11.28
2023-03-21T22:32:56.428Z,11.26
2023-03-21T22:35:31.311Z,11.23
2023-03-21T22:37:59.674Z,11.19
2023-03-21T22:40:28.014Z,11.16
2023-03-21T22:42:56.086Z,11.10
2023-03-21T22:45:24.569Z,11.07
2023-03-21T22:47:53.442Z,11.01
2023-03-21T22:50:21.841Z,10.96
2023-03-21T22:52:50.424Z,10.91
2023-03-21T22:55:18.721Z,10.83
2023-03-21T22:57:47.077Z,10.79
2023-03-21T23:00:16.486Z,10.75
2023-03-21T23:02:44.661Z,10.70
2023-03-21T23:05:14.264Z,10.65
2023-03-21T23:07:42.406Z,10.58
2023-03-21T23:10:14.296Z,10.51
2023-03-21T23:12:42.788Z,10.43
2023-03-21T23:15:11.467Z,10.37
2023-03-21T23:17:39.742Z,10.30
2023-03-21T23:20:08.834Z,10.24
2023-03-21T23:22:37.635Z,10.17
2023-03-21T23:25:07.029Z,10.12
2023-03-21T23:27:38.076Z,10.06
2023-03-21T23:30:07.979Z,10.00
2023-03-21T23:32:36.419Z,9.96
2023-03-21T23:35:05.288Z,9.91
2023-03-21T23:37:33.431Z,9.87
2023-03-21T23:40:02.419Z,9.83
2023-03-21T23:42:30.916Z,9.80
2023-03-21T23:44:59.591Z,9.79
2023-03-21T23:47:28.586Z,9.77
2023-03-21T23:49:56.760Z,9.76
2023-03-21T23:52:25.068Z,9.77
2023-03-21T23:54:53.320Z,9.74
2023-03-21T23:57:22.102Z,9.72
2023-03-21T23:59:50.476Z,9.72
